x

Neah Bay, - 6nm North Of Cape Flattery, Wa (traffic Separation Lighted Buoy) (46087) Wave Buoy

11:50 - Thu 11th Feb 2016 All times are PST. -8 hours from GMT.

  • Sig Wave height 7.2ft
  • Swell Direction
  • Peak Period 17s
  • Average Period 8s
  • Wind
    27mph, 31mph gusts
  • Sea Temp 50°f
  • Aire Temp 49°f
  • Sea Pressure 1018.1mb
  • Neah Bay, - 6nm North Of Cape Flattery, Wa     (traffic Separation Lighted Buoy)
  • Neah Bay, - 6nm North Of Cape Flattery, Wa     (traffic Separation Lighted Buoy)

More Historic Weather Station data

Upgrade to MSW Pro to gain access to the past 30 days of data for over 8000 Wavebouys and Weather Stations around the globe.

Join Pro

Comparision Forecast

View Surf forecast
   
jue 02/11 11:50 7ft 17s 8s 27 31 mph 1018.1mb 50f 49f
11:20 7.5ft 19s 8s 25 29 mph 1018.7mb 50f 49f
10:50 7ft 19s 8s 25 29 mph 1018.8mb 50f 49f
10:20 6ft 19s 7s 22 27 mph 1018.7mb 50f 49f
9:50 6ft 19s 7s 22 27 mph 1019.3mb 50f 49f
9:20 6ft 19s 8s 20 25 mph 1020mb 50f 49f
8:50 7ft 19s 8s 20 25 mph 1020.1mb 50f 49f
8:20 6ft 19s 8s 22 25 mph 1020.1mb 50f 50f
7:50 5.5ft 19s 8s 22 27 mph 1020mb 50f 50f
7:20 5.5ft 11s 8s 20 25 mph 1020.4mb 50f 50f
4:20 7ft 11s 8s 18 25 mph 1021.7mb 48f 48f
3:50 8.5ft 10s 8s 18 22 mph 1021.8mb 48f 48f
3:20 9ft 10s 8s 18 22 mph 1022.2mb 48f 49f
2:50 8.5ft 11s 8s 18 22 mph 1022.4mb 48f 48f
2:20 8ft 10s 8s 16 22 mph 1022.7mb 48f 49f
1:50 10ft 10s 8s 16 20 mph 1022.7mb 48f 48f
1:20 8.5ft 10s 8s 13 16 mph 1023.3mb 48f 48f
12:50 8.5ft 10s 8s 16 20 mph 1023.9mb 48f 48f
12:20 8ft 8s 8s 16 20 mph 1024.2mb 49f 49f
mié 02/10 11:50 8ft 9s 9s 13 16 mph 1024.7mb 49f 49f
11:20 7ft 11s 8s 13 16 mph 1025mb 49f 49f
10:50 6.5ft 11s 8s 13 16 mph 1024.9mb 49f 49f
10:20 6ft 11s 8s 11 13 mph 1024.8mb 50f 49f
9:50 5.5ft 12s 9s 9 11 mph 1024.5mb 50f 50f
9:20 5.5ft 12s 8s 7 11 mph 1024.5mb 50f 50f
8:50 5.5ft 8s 8s 4 7 mph 1024.9mb 51f 51f
8:20 5.5ft 11s 8s 7
mph
1024.9mb 51f 51f
7:50 5ft 11s 8s 9
mph
1025mb 51f 51f
7:20 5ft 8s 8s 7
mph
1025.1mb 51f 51f
6:50 4.5ft 11s 7s 7 9 mph 1024.7mb 51f 51f
6:20 5ft 9s 7s 9 11 mph 1024.3mb 50f 51f
5:50 6ft 12s 7s 11
mph
1024.1mb 51f 51f
5:20 5.5ft 12s 7s 11 13 mph 1023.7mb 51f 52f
4:50 6.5ft 8s 7s 16 18 mph 1023.2mb 51f 52f
4:20 5.5ft 7s 6s 16 20 mph 1022.6mb 51f 52f
3:50 6ft 11s 6s 18 20 mph 1022.3mb 51f 53f
3:20 6.5ft 10s 6s 18 20 mph 1021.8mb 51f 52f
2:50 6.5ft 8s 6s 20 25 mph 1021.2mb 50f 53f
2:20 6.5ft 7s 6s 20 27 mph 1020.4mb 50f 52f
1:50 7ft 9s 6s 22 25 mph 1020.1mb 50f 52f
1:20 6.5ft 10s 6s 22 29 mph 1019.8mb 50f 53f
12:50 6ft 10s 7s 20 25 mph 1019.8mb 50f 53f
12:20 5ft 11s 7s 20 27 mph 1019.8mb 50f 53f
11:50 5ft 10s 7s 18 25 mph 1019.9mb 50f 53f
11:20 4.5ft 11s 7s 11 16 mph 1019.3mb 50f 52f
10:50 4.5ft 11s 7s 13 16 mph 1019.1mb 50f 51f
10:20 4.5ft 11s 8s 13 16 mph 1019.1mb 50f 51f
9:50 4.5ft 11s 8s 11 16 mph 1018.9mb 50f 51f
9:20 4ft 10s 8s 11 16 mph 1018.9mb 50f 51f
8:50 4.5ft 11s 8s 9 16 mph 1018.8mb 50f 52f
8:20 3.5ft 11s 8s 16 20 mph 1018.2mb 50f 53f
7:50 4.5ft 11s 9s 9 13 mph 1018.7mb 50f 51f
7:20 4.5ft 11s 9s 9 11 mph 1018.3mb 50f 49f
6:50 4.5ft 11s 9s 11 16 mph 1018mb 49f 49f
6:20 5ft 11s 9s 11 13 mph 1018mb 49f 49f
5:50 5ft 11s 9s 9 11 mph 1017.8mb 49f 49f
5:20 5ft 11s 8s 16 18 mph 1017.4mb 48f 49f
4:50 4.5ft 11s 8s 13 16 mph 1017.4mb 48f 49f
4:20 4.5ft 11s 8s 2 7 mph 1017.4mb 48f 52f
3:50 5.5ft 11s 9s  -  2 mph 1017.6mb 49f 51f
3:20 5.5ft 11s 8s 2 4 mph 1017.6mb 49f 51f
2:50 5.5ft 11s 9s 4 7 mph 1017.9mb 49f 53f
2:20 5.5ft 11s 9s 2 4 mph 1018.2mb 48f 52f
1:50 5ft 11s 8s 4 7 mph 1018.4mb 48f 51f
1:20 5ft 11s 8s 9 13 mph 1018.4mb 48f 49f
12:50 5ft 11s 8s 7 9 mph 1018.8mb 48f 50f
12:20 5ft 11s 9s 7 9 mph 1019.1mb 48f 50f
mar 02/09 11:50 6ft 12s 10s 4 7 mph 1019.5mb 48f 49f
11:20 5.5ft 12s 9s 7 9 mph 1019.3mb 48f 48f
10:50 5ft 12s 10s 9 11 mph 1019mb 49f 49f
10:20 6ft 12s 10s 11 13 mph 1018.6mb 48f 50f
9:50 6ft 12s 10s 13 16 mph 1018.4mb 48f 49f
9:20 6ft 12s 10s 13 16 mph 1018.7mb 48f 49f
8:50 5.5ft 12s 10s 11 13 mph 1018.9mb 48f 49f
8:20 5.5ft 12s 10s 9 13 mph 1019.1mb 48f 49f
7:50 5.5ft 11s 10s 11 13 mph 1018.9mb 49f 49f
7:20 6ft 11s 10s 11 16 mph 1018.9mb 49f 49f
6:50 6.5ft 13s 10s 11 16 mph 1019.2mb 49f 50f
6:20 6ft 13s 10s 13 18 mph 1018.8mb 49f 50f
5:50 6ft 12s 10s 16 20 mph 1018.5mb 49f 50f
5:20 6.5ft 13s 9s 18 22 mph 1018.7mb 49f 50f
4:50 6.5ft 13s 9s 13 18 mph 1019.1mb 49f 51f
4:20 7ft 13s 9s 13 18 mph 1019mb 49f 50f
3:50 6.5ft 12s 9s 18 22 mph 1018.5mb 49f 50f
3:20 6ft 12s 8s 16 20 mph 1018.9mb 49f 50f
2:50 7ft 13s 9s 18 25 mph 1018.6mb 49f 50f
2:20 6.5ft 11s 8s 22 25 mph 1018.3mb 49f 50f
1:50 7ft 12s 9s 22 25 mph 1018.7mb 49f 49f
1:20 7ft 13s 9s 20 25 mph 1018.9mb 49f 49f
12:50 6ft 13s 8s 22 25 mph 1019.2mb 49f 49f
12:20 6ft 12s 8s 22 27 mph 1019.4mb 50f 49f
11:50 6.5ft 11s 8s 22 27 mph 1019.4mb 50f 49f
11:20 6ft 12s 7s 22 27 mph 1019.7mb 50f 49f
10:50 5.5ft 13s 6s 22 27 mph 1019.9mb 50f 49f
10:20 6.5ft 13s 7s 22 29 mph 1020.1mb 50f 49f
9:50 7ft 14s 8s 25 29 mph 1020mb 50f 49f
9:20 7ft 14s 8s 22 27 mph 1020mb 50f 50f
8:50 7ft 14s 7s 22 27 mph 1020.1mb 50f 49f
8:20 7ft 14s 7s 22 29 mph 1020.2mb 50f 50f
7:50 7ft 14s 7s 22 27 mph 1020.3mb 50f 50f
7:20 7ft 14s 7s 25 27 mph 1020.1mb 50f 50f
6:50 8ft 14s 8s 25 29 mph 1020.1mb 50f 50f
6:20 7.5ft 13s 7s 22 27 mph 1020.2mb 50f 50f
5:50 7ft 14s 7s 25 29 mph 1020.2mb 50f 50f
5:20 7ft 14s 8s 25 29 mph 1020.4mb 50f 50f
4:50 7.5ft 14s 9s 25 31 mph 1020.4mb 49f 50f
4:20 7.5ft 14s 8s 22 29 mph 1020.7mb 49f 50f
3:50 9ft 13s 9s 25 29 mph 1020.8mb 48f 50f
3:20 8.5ft 14s 9s 25 29 mph 1021mb 48f 51f
2:50 8.5ft 12s 9s 25 29 mph 1021.1mb 48f 51f
2:20 10ft 12s 9s 27 31 mph 1020.8mb 48f 51f
1:50 9ft 15s 9s 27 34 mph 1020.9mb 48f 51f
1:20 8.5ft 12s 8s 29 36 mph 1020.8mb 48f 51f
12:50 9ft 13s 9s 29 34 mph 1021.3mb 48f 51f
12:20 8.5ft 14s 8s 29 36 mph 1021.7mb 49f 50f
lun 02/08 11:50 8.5ft 15s 8s 29 38 mph 1021.9mb 49f 50f
11:20 8ft 14s 8s 29 36 mph 1022.3mb 49f 50f
10:50 9ft 14s 8s 29 36 mph 1022.7mb 49f 50f
10:20 8.5ft 14s 8s 31 38 mph 1022.8mb 49f 50f
9:50 9ft 14s 9s 29 34 mph 1023.6mb 49f 51f
9:20 8ft 15s 8s 29 36 mph 1023.9mb 49f 50f
8:50 8ft 13s 8s 29 36 mph 1024.2mb 49f 50f
8:20 9ft 14s 9s 29 36 mph 1024.3mb 49f 50f
7:50 8.5ft 15s 9s 27 34 mph 1024.6mb 49f 50f
7:20 8.5ft 15s 9s 27 34 mph 1025mb 49f 50f
6:50 8ft 14s 8s 27 31 mph 1025.2mb 49f 50f
6:20 9ft 14s 9s 25 31 mph 1025.8mb 49f 50f
5:50 8ft 15s 9s 25 29 mph 1026.1mb 49f 50f
5:20 8.5ft 15s 9s 25 29 mph 1026.5mb 50f 50f
4:50 8ft 14s 8s 25 29 mph 1026.7mb 50f 50f
4:20 8ft 16s 9s 22 29 mph 1026.6mb 50f 50f
3:50 8.5ft 16s 8s 22 27 mph 1026.9mb 50f 50f
3:20 7.5ft 16s 8s 22 27 mph 1027mb 49f 50f
2:50 8ft 16s 9s 22 25 mph 1027.2mb 49f 50f
2:20 8ft 16s 8s 25 29 mph 1027.5mb 49f 50f
1:50 8ft 16s 8s 25 29 mph 1027.7mb 49f 49f
1:20 9ft 16s 9s 25 29 mph 1028.1mb 49f 49f
12:50 9ft 16s 8s 25 31 mph 1028.5mb 49f 49f
12:20 8.5ft 16s 8s 25 31 mph 1028.9mb 49f 49f
11:50 9.5ft 16s 9s 25 31 mph 1029.3mb 49f 49f
11:20 9ft 16s 9s 25 29 mph 1029.6mb 49f 49f
10:50 8ft 17s 8s 27 31 mph 1029.7mb 49f 49f
10:20 9.5ft 17s 10s 27 31 mph 1029.9mb 49f 49f
9:50 8.5ft 17s 9s 25 29 mph 1030.1mb 49f 49f
9:20 8ft 17s 9s 25 31 mph 1030.1mb 49f 49f
8:50 8ft 17s 9s 27 31 mph 1030mb 49f 48f
8:20 8ft 17s 9s 22 27 mph 1030.2mb 49f 49f
7:50 8ft 17s 9s 22 27 mph 1030.2mb 49f 49f
7:20 8.5ft 17s 9s 22 27 mph 1030.2mb 49f 49f
6:50 8ft 17s 8s 20 25 mph 1030.6mb 49f 49f
6:20 8.5ft 17s 9s 20 25 mph 1030.6mb 49f 49f
5:50 8ft 17s 9s 20 27 mph 1030.6mb 49f 49f
5:20 8ft 17s 9s 22 27 mph 1030.4mb 49f 49f
4:50 7ft 17s 8s 25 31 mph 1030.3mb 49f 49f
4:20 7ft 17s 9s 25 29 mph 1030.5mb 49f 49f
3:50 7ft 17s 9s 25 29 mph 1030.6mb 49f 49f
3:20 6ft 17s 8s 22 27 mph 1030.9mb 49f 49f
2:50 6ft 17s 8s 25 27 mph 1030.7mb 49f 49f
2:20 5.5ft 17s 7s 22 27 mph 1030.7mb 49f 49f
1:50 5.5ft 17s 7s 22 27 mph 1030.8mb 49f 49f
1:20 6.5ft 12s 7s 25 29 mph 1030.8mb 49f 49f
12:50 6ft 11s 7s 25 29 mph 1031.1mb 49f 48f
12:20 6.5ft 11s 7s 22 25 mph 1031.8mb 49f 48f
dom 02/07 11:50 7ft 11s 7s 25 29 mph 1031.7mb 49f 48f
11:20 6.5ft 11s 7s 22 29 mph 1031.9mb 49f 48f
10:50 6.5ft 11s 7s 25 29 mph 1031.8mb 49f 48f
10:20 6.5ft 10s 7s 25 29 mph 1031.9mb 49f 48f
9:50 6ft 11s 7s 22 27 mph 1032.2mb 49f 48f
9:20 7ft 10s 7s 25 29 mph 1032.3mb 50f 48f
8:50 6.5ft 10s 7s 25 29 mph 1032.4mb 50f 48f